AAL2639 MMPR-KDFW
Flight info
| Callsign | AAL2639 |
|---|---|
| Flight time | N/A |
| Altitude | 37000 |
| Route | XUDED1A XUDED UT148 OTEKA UT1 MOV DCT PNG DCT CSI DCT GUTZZ SHMPP3 |
| Aircraft | B738/M-SDE2E3FGHIRWXY/LB1 |
Departure
| Time | N/A |
|---|---|
| Airport | Puerto Vallarta International Airport (MMPR) |
Arrival
| Time | 2026-04-30 18:23 |
|---|---|
| Airport | Dallas Fort Worth International Airport (KDFW) |
| Time | Latitude | Longitude | Altitude | Speed | Heading |
|---|---|---|---|---|---|
| 2026-04-30 17:39 | 29.72032 | -99.42418 | 36932 ft | 483 kts | 35° |
| 2026-04-30 17:42 | 29.96932 | -99.16456 | 37013 ft | 482 kts | 35° |
| 2026-04-30 17:43 | 30.09341 | -99.03465 | 37028 ft | 482 kts | 35° |
| 2026-04-30 17:44 | 30.17542 | -98.97196 | 36981 ft | 468 kts | 20° |
| 2026-04-30 17:44 | 30.26101 | -98.91743 | 36944 ft | 469 kts | 21° |
| 2026-04-30 17:47 | 30.51603 | -98.74721 | 36980 ft | 471 kts | 22° |
| 2026-04-30 17:48 | 30.71503 | -98.61337 | 37031 ft | 474 kts | 21° |
| 2026-04-30 17:49 | 30.82779 | -98.53715 | 35415 ft | 464 kts | 22° |
| 2026-04-30 17:50 | 30.93829 | -98.46234 | 33648 ft | 455 kts | 22° |
| 2026-04-30 17:51 | 31.01978 | -98.40704 | 32303 ft | 449 kts | 22° |
| 2026-04-30 17:52 | 31.10038 | -98.35224 | 31003 ft | 444 kts | 22° |
| 2026-04-30 17:53 | 31.23209 | -98.26244 | 28753 ft | 434 kts | 21° |
| 2026-04-30 17:54 | 31.33535 | -98.19184 | 26970 ft | 425 kts | 21° |
| 2026-04-30 17:55 | 31.43865 | -98.13376 | 25267 ft | 390 kts | 357° |
| 2026-04-30 17:56 | 31.54523 | -98.11904 | 23681 ft | 383 kts | 358° |
| 2026-04-30 17:57 | 31.62373 | -98.10727 | 22301 ft | 379 kts | 358° |
| 2026-04-30 17:58 | 31.69850 | -98.07241 | 20965 ft | 398 kts | 24° |
| 2026-04-30 17:59 | 31.79315 | -98.00629 | 19253 ft | 394 kts | 23° |
| 2026-04-30 18:00 | 31.88757 | -97.94177 | 17554 ft | 389 kts | 21° |
| 2026-04-30 18:00 | 31.95823 | -97.89539 | 16247 ft | 391 kts | 22° |
| 2026-04-30 18:01 | 32.00584 | -97.86404 | 15356 ft | 391 kts | 23° |
| 2026-04-30 18:02 | 32.07654 | -97.81723 | 14088 ft | 384 kts | 24° |
| 2026-04-30 18:02 | 32.14587 | -97.77127 | 12762 ft | 378 kts | 24° |
| 2026-04-30 18:03 | 32.21341 | -97.72620 | 11448 ft | 369 kts | 25° |
| 2026-04-30 18:04 | 32.27873 | -97.68565 | 10995 ft | 331 kts | 20° |
| 2026-04-30 18:05 | 32.35018 | -97.64401 | 11007 ft | 311 kts | 20° |
| 2026-04-30 18:06 | 32.42075 | -97.58199 | 11012 ft | 322 kts | 40° |
| 2026-04-30 18:07 | 32.48448 | -97.50873 | 11011 ft | 317 kts | 39° |
| 2026-04-30 18:08 | 32.51343 | -97.44010 | 11020 ft | 326 kts | 83° |
| 2026-04-30 18:09 | 32.52388 | -97.33282 | 11010 ft | 327 kts | 81° |
| 2026-04-30 18:10 | 32.53696 | -97.22958 | 9761 ft | 308 kts | 79° |
| 2026-04-30 18:11 | 32.54809 | -97.13433 | 8030 ft | 293 kts | 88° |
| 2026-04-30 18:11 | 32.52149 | -97.07546 | 6739 ft | 272 kts | 153° |
| 2026-04-30 18:12 | 32.47098 | -97.07621 | 5440 ft | 245 kts | 219° |
| 2026-04-30 18:13 | 32.45516 | -97.10977 | 4556 ft | 241 kts | 265° |
| 2026-04-30 18:13 | 32.48106 | -97.15639 | 3202 ft | 236 kts | 343° |
| 2026-04-30 18:14 | 32.50962 | -97.15312 | 2994 ft | 186 kts | 38° |
| 2026-04-30 18:15 | 32.53563 | -97.12474 | 3019 ft | 167 kts | 51° |
| 2026-04-30 18:15 | 32.56007 | -97.09568 | 2996 ft | 165 kts | 50° |
| 2026-04-30 18:16 | 32.57648 | -97.07614 | 3003 ft | 170 kts | 49° |
| 2026-04-30 18:16 | 32.59356 | -97.05841 | 2986 ft | 169 kts | 28° |
| 2026-04-30 18:17 | 32.60578 | -97.05792 | 3018 ft | 181 kts | 4° |
| 2026-04-30 18:17 | 32.61797 | -97.05698 | 3013 ft | 172 kts | 11° |
| 2026-04-30 18:17 | 32.64265 | -97.05579 | 3034 ft | 181 kts | 9° |
| 2026-04-30 18:18 | 32.65531 | -97.05576 | 3018 ft | 182 kts | 5° |
| 2026-04-30 18:18 | 32.66794 | -97.05584 | 2997 ft | 180 kts | 5° |
| 2026-04-30 18:18 | 32.68056 | -97.05584 | 3019 ft | 182 kts | 6° |
| 2026-04-30 18:18 | 32.69287 | -97.05579 | 2993 ft | 174 kts | 6° |
| 2026-04-30 18:19 | 32.70450 | -97.05576 | 2981 ft | 161 kts | 6° |
| 2026-04-30 18:19 | 32.71538 | -97.05572 | 2996 ft | 155 kts | 7° |
| 2026-04-30 18:19 | 32.72623 | -97.05564 | 3002 ft | 157 kts | 6° |
| 2026-04-30 18:19 | 32.73722 | -97.05556 | 3007 ft | 157 kts | 5° |
| 2026-04-30 18:20 | 32.74801 | -97.05552 | 3012 ft | 154 kts | 6° |
| 2026-04-30 18:20 | 32.75884 | -97.05545 | 2920 ft | 159 kts | 5° |
| 2026-04-30 18:20 | 32.76988 | -97.05538 | 2729 ft | 158 kts | 7° |
| 2026-04-30 18:20 | 32.78075 | -97.05532 | 2521 ft | 155 kts | 7° |
| 2026-04-30 18:21 | 32.79136 | -97.05532 | 2318 ft | 150 kts | 5° |
| 2026-04-30 18:21 | 32.80173 | -97.05525 | 2128 ft | 150 kts | 7° |
| 2026-04-30 18:21 | 32.81230 | -97.05517 | 1952 ft | 152 kts | 6° |
| 2026-04-30 18:21 | 32.82264 | -97.05513 | 1725 ft | 145 kts | 5° |
| 2026-04-30 18:22 | 32.83286 | -97.05561 | 1487 ft | 150 kts | 3° |
| 2026-04-30 18:22 | 32.85366 | -97.05531 | 1167 ft | 155 kts | 10° |
| 2026-04-30 18:22 | 32.86431 | -97.05476 | 937 ft | 151 kts | 1° |
| 2026-04-30 18:23 | 32.87459 | -97.05496 | 733 ft | 147 kts | 4° |
| 2026-04-30 18:23 | 32.88456 | -97.05479 | 596 ft | 136 kts | 7° |
| 2026-04-30 18:23 | 32.89231 | -97.05473 | 596 ft | 78 kts | 0° |
| 2026-04-30 18:23 | 32.89552 | -97.05473 | 602 ft | 42 kts | 0° |
| 2026-04-30 18:24 | 32.90053 | -97.05319 | 603 ft | 34 kts | 33° |
| 2026-04-30 18:24 | 32.90118 | -97.05084 | 598 ft | 30 kts | 92° |
| 2026-04-30 18:24 | 32.90117 | -97.04851 | 598 ft | 27 kts | 89° |
| 2026-04-30 18:25 | 32.90031 | -97.04764 | 598 ft | 17 kts | 181° |
| 2026-04-30 18:25 | 32.89765 | -97.04762 | 596 ft | 20 kts | 178° |
| 2026-04-30 18:25 | 32.89627 | -97.04763 | 597 ft | 20 kts | 181° |
| 2026-04-30 18:26 | 32.89536 | -97.04613 | 597 ft | 13 kts | 68° |
| 2026-04-30 18:26 | 32.89547 | -97.04579 | 597 ft | 0 kts | 66° |